createdAt,value
2022-10-01T00:01:19.247Z,17.52
2022-10-01T00:03:47.844Z,17.63
2022-10-01T00:06:18.234Z,17.46
2022-10-01T00:08:48.681Z,17.30
2022-10-01T00:11:22.254Z,17.11
2022-10-01T00:13:50.318Z,17.15
2022-10-01T00:16:20.586Z,17.05
2022-10-01T00:18:48.753Z,17.00
2022-10-01T00:21:21.668Z,17.23
2022-10-01T00:23:57.407Z,17.36
2022-10-01T00:26:27.311Z,17.31
2022-10-01T00:28:57.950Z,17.34
2022-10-01T00:31:25.599Z,17.36
2022-10-01T00:33:58.306Z,17.38
2022-10-01T00:36:26.673Z,17.48
2022-10-01T00:38:58.616Z,17.44
2022-10-01T00:41:31.716Z,17.41
2022-10-01T00:44:02.406Z,17.48
2022-10-01T00:46:41.781Z,17.52
2022-10-01T00:49:20.523Z,17.51
2022-10-01T00:51:52.797Z,17.59
2022-10-01T00:54:25.328Z,17.54
2022-10-01T00:56:54.779Z,17.59
2022-10-01T00:59:22.155Z,17.59
2022-10-01T01:01:49.790Z,17.62
2022-10-01T01:04:17.504Z,17.64
2022-10-01T01:06:53.754Z,17.73
2022-10-01T01:09:23.171Z,17.71
2022-10-01T01:11:58.453Z,17.62
2022-10-01T01:14:54.391Z,17.64
2022-10-01T01:17:53.607Z,17.66
2022-10-01T01:20:54.931Z,17.62
2022-10-01T01:23:37.348Z,17.66
2022-10-01T01:26:44.504Z,17.57
2022-10-01T01:29:19.954Z,17.59
2022-10-01T01:31:48.690Z,17.51
2022-10-01T01:34:23.520Z,17.53
2022-10-01T01:36:58.556Z,17.51
2022-10-01T01:39:27.057Z,17.66
2022-10-01T01:41:59.415Z,17.66
2022-10-01T01:44:32.021Z,17.57
2022-10-01T01:47:02.028Z,17.52
2022-10-01T01:49:29.854Z,17.55
2022-10-01T01:52:04.435Z,17.52
2022-10-01T01:54:35.675Z,17.52
2022-10-01T01:57:04.156Z,17.56
2022-10-01T01:59:33.826Z,17.65
2022-10-01T02:02:02.159Z,17.59
2022-10-01T02:04:35.606Z,17.65
2022-10-01T02:07:47.653Z,17.75
2022-10-01T02:10:47.173Z,17.63
2022-10-01T02:13:48.130Z,17.65
2022-10-01T02:16:53.453Z,17.61
2022-10-01T02:19:30.347Z,17.55
2022-10-01T02:22:04.539Z,17.56
2022-10-01T02:25:11.439Z,17.58
2022-10-01T02:27:44.515Z,17.66
2022-10-01T02:30:12.526Z,17.61
2022-10-01T02:32:42.640Z,17.54
2022-10-01T02:35:11.980Z,17.40
2022-10-01T02:37:40.802Z,17.50
2022-10-01T02:40:14.636Z,17.46
2022-10-01T02:42:53.501Z,17.31
2022-10-01T02:45:25.770Z,17.46
2022-10-01T02:47:57.820Z,17.55
2022-10-01T02:50:29.622Z,17.51
2022-10-01T02:53:05.404Z,17.58
2022-10-01T02:55:37.951Z,17.52
2022-10-01T02:58:05.916Z,17.56
2022-10-01T03:00:33.580Z,17.53
2022-10-01T03:03:00.906Z,17.63
2022-10-01T03:05:28.806Z,17.60
2022-10-01T03:07:56.115Z,17.54
2022-10-01T03:10:23.421Z,17.52
2022-10-01T03:12:51.016Z,17.48
2022-10-01T03:15:19.372Z,17.56
2022-10-01T03:17:53.637Z,17.64
2022-10-01T03:20:21.264Z,17.51
2022-10-01T03:22:48.648Z,17.46
2022-10-01T03:25:16.210Z,17.44
2022-10-01T03:27:44.100Z,17.65
2022-10-01T03:30:11.838Z,17.60
2022-10-01T03:32:39.397Z,17.75
2022-10-01T03:35:07.450Z,17.63
2022-10-01T03:37:34.734Z,17.56
2022-10-01T03:40:02.168Z,17.62
2022-10-01T03:42:29.708Z,17.73
2022-10-01T03:44:57.009Z,17.72
2022-10-01T03:47:24.370Z,17.60
2022-10-01T03:49:51.992Z,17.72
2022-10-01T03:52:20.387Z,17.70
2022-10-01T03:54:47.699Z,17.77
2022-10-01T03:57:15.408Z,17.75
2022-10-01T03:59:42.704Z,17.58
2022-10-01T04:02:10.263Z,17.55
2022-10-01T04:04:38.087Z,17.59
2022-10-01T04:07:05.380Z,17.59
2022-10-01T04:09:32.669Z,17.52
2022-10-01T04:12:00.395Z,17.83
2022-10-01T04:14:27.777Z,17.60
2022-10-01T04:16:55.067Z,17.56
2022-10-01T04:19:22.700Z,17.68
2022-10-01T04:21:49.997Z,17.67
2022-10-01T04:24:17.310Z,17.62
2022-10-01T04:26:44.868Z,17.73
2022-10-01T04:29:12.163Z,17.75
2022-10-01T04:31:40.298Z,17.73
2022-10-01T04:34:08.029Z,17.67
2022-10-01T04:36:35.312Z,17.70
2022-10-01T04:39:03.098Z,17.74
2022-10-01T04:41:31.785Z,17.73
2022-10-01T04:43:59.855Z,17.82
2022-10-01T04:46:30.050Z,17.85
2022-10-01T04:48:58.253Z,17.80
2022-10-01T04:51:25.743Z,17.77
2022-10-01T04:53:53.148Z,17.76
2022-10-01T04:56:20.707Z,17.84
2022-10-01T04:58:49.097Z,17.79
2022-10-01T05:01:16.447Z,17.83
2022-10-01T05:03:44.024Z,17.94
2022-10-01T05:06:11.349Z,17.87
2022-10-01T05:08:39.098Z,17.85
2022-10-01T05:11:06.666Z,17.82
2022-10-01T05:13:33.968Z,17.88
2022-10-01T05:16:03.012Z,17.88
2022-10-01T05:18:30.669Z,17.66
2022-10-01T05:20:57.962Z,17.67
2022-10-01T05:23:25.347Z,17.71
2022-10-01T05:25:52.917Z,17.76
2022-10-01T05:28:22.603Z,17.86
2022-10-01T05:30:51.068Z,17.85
2022-10-01T05:33:18.783Z,17.87
2022-10-01T05:35:46.088Z,17.83
2022-10-01T05:38:14.402Z,17.85
2022-10-01T05:40:45.894Z,17.62
2022-10-01T05:43:13.673Z,17.51
2022-10-01T05:45:41.612Z,17.58
2022-10-01T05:48:09.809Z,17.67
2022-10-01T05:50:42.452Z,17.68
2022-10-01T05:53:11.270Z,17.86
2022-10-01T05:55:38.746Z,17.90
2022-10-01T05:58:10.345Z,17.81
2022-10-01T06:00:38.959Z,17.73
2022-10-01T06:03:07.824Z,17.79
2022-10-01T06:05:35.807Z,17.80
2022-10-01T06:08:05.574Z,17.76
2022-10-01T06:10:33.163Z,17.80
2022-10-01T06:13:01.804Z,17.85
2022-10-01T06:15:29.607Z,17.77
2022-10-01T06:18:01.144Z,17.91
2022-10-01T06:20:28.460Z,17.81
2022-10-01T06:22:57.349Z,17.91
2022-10-01T06:25:26.100Z,17.89
2022-10-01T06:27:58.243Z,18.05
2022-10-01T06:30:27.711Z,17.90
2022-10-01T06:33:05.445Z,18.03
2022-10-01T06:35:34.447Z,18.02
2022-10-01T06:38:02.402Z,18.07
2022-10-01T06:40:30.616Z,18.16
2022-10-01T06:42:58.815Z,18.20
2022-10-01T06:45:27.773Z,18.13
2022-10-01T06:47:56.618Z,18.14
2022-10-01T06:50:24.900Z,18.11
2022-10-01T06:52:52.766Z,18.22
2022-10-01T06:55:22.208Z,18.27
2022-10-01T06:57:58.332Z,18.15
2022-10-01T07:00:26.706Z,18.21
2022-10-01T07:02:55.693Z,18.19
2022-10-01T07:05:23.918Z,18.30
2022-10-01T07:07:51.614Z,18.32
2022-10-01T07:10:20.938Z,18.34
2022-10-01T07:12:51.661Z,18.46
2022-10-01T07:15:22.719Z,18.55
2022-10-01T07:17:50.906Z,18.44
2022-10-01T07:20:19.887Z,18.52
2022-10-01T07:22:48.582Z,18.32
2022-10-01T07:25:15.946Z,18.25
2022-10-01T07:27:43.399Z,18.32
2022-10-01T07:30:11.339Z,18.20
2022-10-01T07:32:38.700Z,18.32
2022-10-01T07:35:06.798Z,18.48
2022-10-01T07:37:34.444Z,18.37
2022-10-01T07:40:07.136Z,18.34
2022-10-01T07:42:35.806Z,18.39
2022-10-01T07:45:06.738Z,18.40
2022-10-01T07:47:34.154Z,18.49
2022-10-01T07:50:01.997Z,18.45
2022-10-01T07:52:29.296Z,18.48
2022-10-01T07:54:56.585Z,18.53
2022-10-01T07:57:24.131Z,18.54
2022-10-01T07:59:55.712Z,18.55
2022-10-01T08:02:23.786Z,18.61
2022-10-01T08:05:10.120Z,18.70
2022-10-01T08:07:37.395Z,18.78
2022-10-01T08:10:05.524Z,18.85
2022-10-01T08:12:32.833Z,18.81
2022-10-01T08:15:02.143Z,18.96
2022-10-01T08:17:30.117Z,18.89
2022-10-01T08:19:57.403Z,18.87
2022-10-01T08:22:24.696Z,18.94
2022-10-01T08:24:52.246Z,18.89
2022-10-01T08:27:19.652Z,18.92
2022-10-01T08:29:47.058Z,19.00
2022-10-01T08:32:14.780Z,18.94
2022-10-01T08:34:42.064Z,19.13
2022-10-01T08:37:09.339Z,18.91
2022-10-01T08:39:37.170Z,18.92
2022-10-01T08:42:19.684Z,19.02
2022-10-01T08:44:47.869Z,18.90
2022-10-01T08:47:34.917Z,18.87
2022-10-01T08:50:17.147Z,18.92
2022-10-01T08:52:52.463Z,19.03
2022-10-01T08:55:26.666Z,19.15
2022-10-01T08:57:57.057Z,19.24
2022-10-01T09:00:32.691Z,19.19
2022-10-01T09:03:04.738Z,19.36
2022-10-01T09:06:11.510Z,19.39
2022-10-01T09:09:03.896Z,19.46
2022-10-01T09:11:53.455Z,19.48
2022-10-01T09:14:36.324Z,19.63
2022-10-01T09:17:41.587Z,19.61
2022-10-01T09:20:25.729Z,19.64
2022-10-01T09:23:08.518Z,19.87
2022-10-01T09:25:37.471Z,19.94
2022-10-01T09:28:31.977Z,20.09
2022-10-01T09:31:06.645Z,20.15
2022-10-01T09:33:37.481Z,20.43
2022-10-01T09:36:30.295Z,20.49
2022-10-01T09:39:17.461Z,20.58
2022-10-01T09:41:46.081Z,20.72
2022-10-01T09:44:19.145Z,20.85
2022-10-01T09:46:46.734Z,20.93
2022-10-01T09:49:35.432Z,20.78
2022-10-01T09:52:11.007Z,21.04
2022-10-01T09:54:47.135Z,21.03
2022-10-01T09:57:21.977Z,20.92
2022-10-01T10:00:10.608Z,21.10
2022-10-01T10:02:48.173Z,21.05
2022-10-01T10:05:17.607Z,21.34
2022-10-01T10:07:48.882Z,21.20
2022-10-01T10:10:25.545Z,21.00
2022-10-01T10:13:02.021Z,21.04
2022-10-01T10:15:32.517Z,20.99
2022-10-01T10:18:30.063Z,21.02
2022-10-01T10:20:59.204Z,21.05
2022-10-01T10:23:28.892Z,21.22
2022-10-01T10:26:02.706Z,21.33
2022-10-01T10:28:43.641Z,21.47
2022-10-01T10:31:17.055Z,21.59
2022-10-01T10:33:57.390Z,21.79
2022-10-01T10:36:28.941Z,21.96
2022-10-01T10:38:57.309Z,21.94
2022-10-01T10:41:26.537Z,21.94
2022-10-01T10:44:06.582Z,22.11
2022-10-01T10:46:36.186Z,22.36
2022-10-01T10:49:18.584Z,22.23
2022-10-01T10:51:53.697Z,22.35
2022-10-01T10:54:25.726Z,22.18
2022-10-01T10:57:14.533Z,22.30
2022-10-01T10:59:42.146Z,22.09
2022-10-01T11:02:16.805Z,22.36
2022-10-01T11:04:47.130Z,22.37
2022-10-01T11:07:19.752Z,22.34
2022-10-01T11:10:04.066Z,22.18
2022-10-01T11:12:50.408Z,22.08
2022-10-01T11:15:46.963Z,22.09
2022-10-01T11:18:23.900Z,22.06
2022-10-01T11:21:16.443Z,22.03
2022-10-01T11:23:56.236Z,22.20
2022-10-01T11:26:30.460Z,22.37
2022-10-01T11:29:04.456Z,22.44
2022-10-01T11:31:38.208Z,22.36
2022-10-01T11:34:39.923Z,22.46
2022-10-01T11:37:27.814Z,22.71
2022-10-01T11:39:58.118Z,22.41
2022-10-01T11:42:34.706Z,22.40
2022-10-01T11:45:21.555Z,22.56
2022-10-01T11:47:52.988Z,22.55
2022-10-01T11:50:25.767Z,22.67
2022-10-01T11:53:12.742Z,22.70
2022-10-01T11:56:11.064Z,22.70
2022-10-01T11:58:52.942Z,22.65
2022-10-01T12:01:43.408Z,22.64
2022-10-01T12:04:23.407Z,22.52
2022-10-01T12:07:02.700Z,22.44
2022-10-01T12:09:44.958Z,22.45
2022-10-01T12:12:17.215Z,22.49
2022-10-01T12:14:51.708Z,22.48
2022-10-01T12:17:23.537Z,22.33
2022-10-01T12:19:51.150Z,22.14
2022-10-01T12:22:25.594Z,22.36
2022-10-01T12:24:53.883Z,22.18
2022-10-01T12:27:44.317Z,22.10
2022-10-01T12:30:20.635Z,22.17
2022-10-01T12:32:58.088Z,21.91
2022-10-01T12:35:36.032Z,21.83
2022-10-01T12:38:21.189Z,21.99
2022-10-01T12:41:14.403Z,22.03
2022-10-01T12:43:44.547Z,22.03
2022-10-01T12:46:25.205Z,21.99
2022-10-01T12:49:14.550Z,22.00
2022-10-01T12:51:48.755Z,21.92
2022-10-01T12:54:24.244Z,21.68
2022-10-01T12:57:26.882Z,21.76
2022-10-01T13:00:24.883Z,21.87
2022-10-01T13:03:29.492Z,21.78
2022-10-01T13:08:37.256Z,21.97
2022-10-01T13:11:35.077Z,22.07
2022-10-01T13:14:04.234Z,22.20
2022-10-01T13:16:44.524Z,22.13
2022-10-01T13:19:14.903Z,22.10
2022-10-01T13:21:45.061Z,22.16
2022-10-01T13:25:00.798Z,22.24
2022-10-01T13:27:45.270Z,22.20
2022-10-01T13:30:24.164Z,22.18
2022-10-01T13:32:54.100Z,22.24
2022-10-01T13:35:27.933Z,22.23
2022-10-01T13:37:57.025Z,22.27
2022-10-01T13:40:30.386Z,22.18
2022-10-01T13:43:03.536Z,22.13
2022-10-01T13:45:37.141Z,21.96
2022-10-01T13:48:10.263Z,21.40
2022-10-01T13:50:54.622Z,21.56
2022-10-01T13:53:25.220Z,21.63
2022-10-01T13:55:53.945Z,21.75
2022-10-01T13:58:30.278Z,21.56
2022-10-01T14:01:00.835Z,21.34
2022-10-01T14:03:38.639Z,21.45
2022-10-01T14:06:08.927Z,21.26
2022-10-01T14:08:47.345Z,21.34
2022-10-01T14:11:36.981Z,21.04
2022-10-01T14:14:31.166Z,20.85
2022-10-01T14:16:59.217Z,21.06
2022-10-01T14:19:27.530Z,20.94
2022-10-01T14:22:04.084Z,20.96
2022-10-01T14:24:47.779Z,20.99
2022-10-01T14:27:23.413Z,21.06
2022-10-01T14:30:26.360Z,21.14
2022-10-01T14:33:12.248Z,21.27
2022-10-01T14:35:58.200Z,21.32
2022-10-01T14:38:25.497Z,21.27
2022-10-01T14:40:53.788Z,21.07
2022-10-01T14:43:26.362Z,21.04
2022-10-01T14:46:02.504Z,21.17
2022-10-01T14:48:35.159Z,21.16
2022-10-01T14:51:05.665Z,20.94
2022-10-01T14:53:37.573Z,20.90
2022-10-01T14:56:05.903Z,20.88
2022-10-01T14:58:36.777Z,20.83
2022-10-01T15:01:05.071Z,20.89
2022-10-01T15:03:38.200Z,20.67
2022-10-01T15:06:12.621Z,20.70
2022-10-01T15:08:45.064Z,20.49
2022-10-01T15:11:22.197Z,20.47
2022-10-01T15:13:52.026Z,20.34
2022-10-01T15:16:22.485Z,20.08
2022-10-01T15:18:53.658Z,20.06
2022-10-01T15:21:35.607Z,19.97
2022-10-01T15:24:05.204Z,19.71
2022-10-01T15:26:33.108Z,19.65
2022-10-01T15:29:21.041Z,19.63
2022-10-01T15:31:50.521Z,19.55
2022-10-01T15:34:19.553Z,19.49
2022-10-01T15:36:48.177Z,19.57
2022-10-01T15:39:29.916Z,19.34
2022-10-01T15:41:57.619Z,19.20
2022-10-01T15:44:38.721Z,19.40
2022-10-01T15:47:23.491Z,19.22
2022-10-01T15:50:18.128Z,19.16
2022-10-01T15:52:54.389Z,19.24
2022-10-01T15:56:06.192Z,19.28
2022-10-01T15:58:39.074Z,19.02
2022-10-01T16:01:12.340Z,19.11
2022-10-01T16:03:42.265Z,18.88
2022-10-01T16:06:29.735Z,18.99
2022-10-01T16:09:06.209Z,19.08
2022-10-01T16:11:53.654Z,19.12
2022-10-01T16:14:43.823Z,19.22
2022-10-01T16:17:17.128Z,19.17
2022-10-01T16:19:48.499Z,19.04
2022-10-01T16:22:22.218Z,18.92
2022-10-01T16:24:52.123Z,18.99
2022-10-01T16:27:21.961Z,19.11
2022-10-01T16:30:02.706Z,18.95
2022-10-01T16:32:32.968Z,18.86
2022-10-01T16:35:20.281Z,18.78
2022-10-01T16:37:50.061Z,18.80
2022-10-01T16:40:19.134Z,18.66
2022-10-01T16:42:46.950Z,18.62
2022-10-01T16:45:19.905Z,18.65
2022-10-01T16:47:47.503Z,18.62
2022-10-01T16:50:17.026Z,18.54
2022-10-01T16:52:44.881Z,18.48
2022-10-01T16:55:26.561Z,18.42
2022-10-01T16:57:57.042Z,18.38
2022-10-01T17:00:26.052Z,18.43
2022-10-01T17:02:54.147Z,18.45
2022-10-01T17:05:27.281Z,18.48
2022-10-01T17:07:57.659Z,18.31
2022-10-01T17:10:25.439Z,18.34
2022-10-01T17:12:53.081Z,18.32
2022-10-01T17:15:23.239Z,18.32
2022-10-01T17:17:50.547Z,18.22
2022-10-01T17:20:18.001Z,18.11
2022-10-01T17:22:46.163Z,18.20
2022-10-01T17:25:21.552Z,18.01
2022-10-01T17:27:49.683Z,18.08
2022-10-01T17:30:17.205Z,18.06
2022-10-01T17:32:44.818Z,18.03
2022-10-01T17:35:14.289Z,18.07
2022-10-01T17:37:42.091Z,18.11
2022-10-01T17:40:10.555Z,18.04
2022-10-01T17:42:38.380Z,18.11
2022-10-01T17:45:08.800Z,18.03
2022-10-01T17:47:36.662Z,18.01
2022-10-01T17:50:04.561Z,17.95
2022-10-01T17:52:32.533Z,17.91
2022-10-01T17:54:59.828Z,17.95
2022-10-01T17:57:27.423Z,17.91
2022-10-01T17:59:54.786Z,17.77
2022-10-01T18:02:41.054Z,17.81
2022-10-01T18:05:12.159Z,17.72
2022-10-01T18:07:39.525Z,17.74
2022-10-01T18:10:09.498Z,17.54
2022-10-01T18:12:37.157Z,17.63
2022-10-01T18:15:04.845Z,17.59
2022-10-01T18:17:33.218Z,17.58
2022-10-01T18:20:00.894Z,17.44
2022-10-01T18:22:28.627Z,17.46
2022-10-01T18:24:56.167Z,17.39
2022-10-01T18:27:23.751Z,17.36
2022-10-01T18:29:51.048Z,17.42
2022-10-01T18:32:26.281Z,17.40
2022-10-01T18:34:55.851Z,17.36
2022-10-01T18:37:43.989Z,17.48
2022-10-01T18:40:19.308Z,17.46
2022-10-01T18:42:49.421Z,17.37
2022-10-01T18:45:24.566Z,17.33
2022-10-01T18:48:16.296Z,17.24
2022-10-01T18:50:50.212Z,17.46
2022-10-01T18:53:40.500Z,17.33
2022-10-01T18:56:36.390Z,17.31
2022-10-01T18:59:21.877Z,17.37
2022-10-01T19:01:56.537Z,17.21
2022-10-01T19:04:26.862Z,17.32
2022-10-01T19:07:11.663Z,17.24
2022-10-01T19:09:44.033Z,17.19
2022-10-01T19:12:33.275Z,17.15
2022-10-01T19:15:04.648Z,16.99
2022-10-01T19:17:40.111Z,16.91
2022-10-01T19:20:26.241Z,17.03
2022-10-01T19:23:06.652Z,17.02
2022-10-01T19:25:48.650Z,16.80
2022-10-01T19:28:37.852Z,16.77
2022-10-01T19:31:22.365Z,16.66
2022-10-01T19:34:01.233Z,16.67
2022-10-01T19:36:34.811Z,16.77
2022-10-01T19:39:05.111Z,16.90
2022-10-01T19:41:49.086Z,16.95
2022-10-01T19:44:26.047Z,16.86
2022-10-01T19:46:56.393Z,16.58
2022-10-01T19:49:29.091Z,16.86
2022-10-01T19:51:58.397Z,16.92
2022-10-01T19:54:34.583Z,16.98
2022-10-01T19:57:13.284Z,17.06
2022-10-01T19:59:41.061Z,17.19
2022-10-01T20:02:36.401Z,16.96
2022-10-01T20:05:07.066Z,17.00
2022-10-01T20:07:44.873Z,17.05
2022-10-01T20:10:20.651Z,17.10
2022-10-01T20:13:01.958Z,17.05
2022-10-01T20:15:57.425Z,17.15
2022-10-01T20:18:58.801Z,16.91
2022-10-01T20:21:33.144Z,17.03
2022-10-01T20:24:07.379Z,17.06
2022-10-01T20:26:43.878Z,16.98
2022-10-01T20:29:27.405Z,16.87
2022-10-01T20:32:01.690Z,17.09
2022-10-01T20:34:56.377Z,16.97
2022-10-01T20:38:08.603Z,16.82
2022-10-01T20:40:49.788Z,17.01
2022-10-01T20:43:22.311Z,17.04
2022-10-01T20:45:51.921Z,17.07
2022-10-01T20:48:22.961Z,17.04
2022-10-01T20:50:58.411Z,16.72
2022-10-01T20:53:39.114Z,16.91
2022-10-01T20:56:16.696Z,16.92
2022-10-01T20:58:54.608Z,17.09
2022-10-01T21:01:24.875Z,17.09
2022-10-01T21:04:06.332Z,16.99
2022-10-01T21:06:37.934Z,16.97
2022-10-01T21:09:16.012Z,16.62
2022-10-01T21:11:52.375Z,16.93
2022-10-01T21:14:26.868Z,16.88
2022-10-01T21:17:20.235Z,16.88
2022-10-01T21:20:09.000Z,16.81
2022-10-01T21:22:48.151Z,16.59
2022-10-01T21:25:23.178Z,16.65
2022-10-01T21:28:39.830Z,16.68
2022-10-01T21:31:27.781Z,16.69
2022-10-01T21:34:03.081Z,16.74
2022-10-01T21:36:55.916Z,16.81
2022-10-01T21:39:56.940Z,16.74
2022-10-01T21:42:38.178Z,16.82
2022-10-01T21:45:10.356Z,16.67
2022-10-01T21:48:00.510Z,16.59
2022-10-01T21:50:36.056Z,16.36
2022-10-01T21:53:44.864Z,16.39
2022-10-01T21:56:24.111Z,16.47
2022-10-01T21:59:16.867Z,16.54
2022-10-01T22:02:09.331Z,16.55
2022-10-01T22:04:40.079Z,16.45
2022-10-01T22:07:18.374Z,16.44
2022-10-01T22:10:04.139Z,16.24
2022-10-01T22:12:34.147Z,16.37
2022-10-01T22:15:03.899Z,16.33
2022-10-01T22:17:33.236Z,16.17
2022-10-01T22:20:03.420Z,16.25
2022-10-01T22:22:38.514Z,16.14
2022-10-01T22:25:07.261Z,16.05
2022-10-01T22:27:44.112Z,16.06
2022-10-01T22:30:15.140Z,16.13
2022-10-01T22:32:51.604Z,15.84
2022-10-01T22:35:24.917Z,15.81
2022-10-01T22:37:58.875Z,15.72
2022-10-01T22:40:32.981Z,15.71
2022-10-01T22:43:10.954Z,15.68
2022-10-01T22:45:45.491Z,15.61
2022-10-01T22:48:50.599Z,15.63
2022-10-01T22:51:34.936Z,15.45
2022-10-01T22:54:06.802Z,15.38
2022-10-01T22:57:08.469Z,15.44
2022-10-01T23:00:01.080Z,15.46
2022-10-01T23:03:11.411Z,15.51
2022-10-01T23:05:52.223Z,15.70
2022-10-01T23:08:51.785Z,15.37
2022-10-01T23:11:40.928Z,15.46
2022-10-01T23:14:29.600Z,15.33
2022-10-01T23:16:59.799Z,15.26
2022-10-01T23:19:54.097Z,15.20
2022-10-01T23:22:36.812Z,15.41
2022-10-01T23:25:15.748Z,15.37
2022-10-01T23:28:06.603Z,15.16
2022-10-01T23:30:52.552Z,15.36
2022-10-01T23:33:59.159Z,15.32
2022-10-01T23:36:48.297Z,15.59
2022-10-01T23:39:51.391Z,15.71
2022-10-01T23:42:27.893Z,15.30
2022-10-01T23:45:05.065Z,15.51
2022-10-01T23:47:38.054Z,15.61
2022-10-01T23:50:06.865Z,15.54
2022-10-01T23:52:41.288Z,15.69
2022-10-01T23:55:37.018Z,15.46
2022-10-01T23:58:07.924Z,15.73
